AKDT,Max TemperatureF,Mean TemperatureF,Min TemperatureF,Max Dew PointF,MeanDew PointF,Min DewpointF,Max Humidity, Mean Humidity, Min Humidity, Max Sea Level PressureIn, Mean Sea Level PressureIn, Min Sea Level PressureIn, Max VisibilityMiles, Mean VisibilityMiles, Min VisibilityMiles, Max Wind SpeedMPH, Mean Wind SpeedMPH, Max Gust SpeedMPH,PrecipitationIn, CloudCover, Events, WindDirDegrees
2013-8-1,85,70,54,53,50,47,80,50,18,30.04,29.95,29.80,10,10,10,8,3,,0.00,3,,56
2013-8-2,83,71,58,56,48,41,84,46,15,29.86,29.80,29.70,10,10,10,10,3,,0.00,5,,253
2013-8-3,83,69,55,51,46,41,72,45,15,29.71,29.67,29.63,10,10,10,12,4,20,T,6,Rain-Thunderstorm,191
2013-8-4,75,65,54,51,46,43,75,49,24,29.89,29.82,29.73,10,10,10,9,5,17,T,6,Rain,289
2013-8-5,76,63,50,51,49,44,93,61,22,29.94,29.90,29.86,10,10,10,6,3,,0.00,5,,68
2013-8-6,82,67,52,52,46,39,83,49,14,29.95,29.88,29.79,10,10,10,10,5,,0.00,6,,82
2013-8-7,85,68,50,53,46,41,77,45,14,29.81,29.72,29.60,10,10,10,10,4,,T,3,Rain,51
2013-8-8,82,69,55,52,45,38,77,45,15,29.67,29.64,29.60,10,10,10,8,5,,0.00,4,,61
2013-8-9,69,62,54,54,47,45,78,53,34,29.69,29.66,29.64,10,7,4,8,2,,0.00,7,Rain,32
2013-8-10,70,61,51,52,48,45,86,63,43,29.98,29.81,29.70,10,6,1,10,5,18,T,7,Rain,348
2013-8-11,76,62,47,51,47,44,83,58,21,30.06,30.00,29.93,10,10,9,7,3,,T,6,Rain,352
2013-8-12,75,65,55,57,54,51,87,68,51,30.06,30.00,29.97,10,7,3,7,4,,0.00,5,,213
2013-8-13,77,65,53,59,55,51,90,71,41,29.99,29.91,29.81,10,7,5,5,1,,0.00,5,,125
2013-8-14,69,63,56,57,52,50,90,69,40,29.90,29.86,29.81,10,8,4,14,4,,T,6,,250
2013-8-15,65,59,53,57,54,49,93,81,71,29.86,29.79,29.70,10,9,4,8,2,,0.37,6,Rain,258
2013-8-16,70,62,53,55,53,51,97,83,51,29.70,29.67,29.62,10,5,0,7,1,,0.00,6,Fog,55
2013-8-17,75,63,50,52,49,47,89,63,27,29.63,29.57,29.49,10,10,10,12,5,,0.00,5,,12
2013-8-18,70,61,52,55,51,49,89,67,50,29.55,29.52,29.48,10,10,10,12,4,,T,6,Rain,37
2013-8-19,66,58,50,53,49,42,89,71,34,29.65,29.60,29.55,10,10,3,8,3,,0.14,7,Rain,139
2013-8-20,57,53,48,51,50,45,93,86,74,29.78,29.69,29.64,10,7,2,9,5,,0.68,7,Rain,208
2013-8-21,63,55,47,47,44,39,93,72,38,29.82,29.77,29.71,10,9,4,8,2,,0.01,5,Rain,101
2013-8-22,66,55,43,52,44,38,89,67,35,29.71,29.65,29.58,10,10,7,7,4,,0.03,6,Rain,75
2013-8-23,57,53,48,52,50,43,93,87,69,29.69,29.56,29.51,10,6,2,10,4,,0.68,8,Rain,214
2013-8-24,63,52,41,43,38,34,83,60,26,29.94,29.85,29.71,10,10,10,13,6,,0.00,3,,18
2013-8-25,62,48,34,35,31,28,85,53,18,29.94,29.85,29.75,10,10,10,10,5,,0.00,0,,43
2013-8-26,66,52,38,34,32,30,70,45,17,29.84,29.81,29.77,10,10,10,10,8,,0.00,2,,32
2013-8-27,65,53,40,47,38,31,80,56,31,29.83,29.76,29.65,10,10,10,13,6,,0.00,5,,45
2013-8-28,59,54,49,47,45,39,89,71,49,29.73,29.70,29.66,10,10,10,12,6,,0.01,7,Rain,209
2013-8-29,56,53,49,49,47,43,92,81,66,29.86,29.75,29.66,10,9,7,9,3,,0.07,8,Rain,348
2013-8-30,58,53,47,48,42,34,93,71,31,29.98,29.94,29.87,10,9,3,12,3,,0.02,7,Rain,258
2013-8-31,51,44,37,38,30,23,80,54,25,30.00,29.97,29.93,10,10,10,8,3,,0.00,7,,342